createdAt,value
2022-09-26T00:00:50.430Z,6.72
2022-09-26T00:03:17.075Z,4.70
2022-09-26T00:05:43.682Z,5.65
2022-09-26T00:08:10.248Z,5.18
2022-09-26T00:10:36.847Z,5.38
2022-09-26T00:13:03.516Z,4.07
2022-09-26T00:15:30.125Z,7.63
2022-09-26T00:17:56.711Z,4.18
2022-09-26T00:20:23.350Z,9.07
2022-09-26T00:22:49.927Z,3.65
2022-09-26T00:25:16.676Z,4.80
2022-09-26T00:27:43.256Z,4.97
2022-09-26T00:30:11.695Z,2.72
2022-09-26T00:32:38.289Z,4.90
2022-09-26T00:35:05.325Z,1.83
2022-09-26T00:37:32.023Z,3.78
2022-09-26T00:39:58.712Z,5.97
2022-09-26T00:42:25.326Z,4.25
2022-09-26T00:44:54.613Z,4.75
2022-09-26T00:47:38.725Z,7.97
2022-09-26T00:50:13.422Z,4.90
2022-09-26T00:52:46.483Z,6.75
2022-09-26T00:55:19.323Z,4.00
2022-09-26T00:57:58.076Z,8.93
2022-09-26T01:00:24.977Z,4.47
2022-09-26T01:02:53.184Z,6.10
2022-09-26T01:05:22.887Z,6.32
2022-09-26T01:07:51.181Z,5.15
2022-09-26T01:10:18.410Z,3.83
2022-09-26T01:12:45.222Z,3.42
2022-09-26T01:15:12.670Z,5.53
2022-09-26T01:17:41.725Z,3.90
2022-09-26T01:20:26.962Z,6.15
2022-09-26T01:23:43.750Z,4.55
2022-09-26T01:26:28.942Z,5.22
2022-09-26T01:28:58.533Z,5.25
2022-09-26T01:32:18.254Z,3.85
2022-09-26T01:34:56.492Z,7.38
2022-09-26T01:37:49.288Z,4.40
2022-09-26T01:40:31.611Z,8.50
2022-09-26T01:43:21.483Z,3.67
2022-09-26T01:46:06.125Z,6.20
2022-09-26T01:51:19.494Z,4.32
2022-09-26T01:53:52.075Z,5.32
2022-09-26T01:56:28.357Z,5.25
2022-09-26T01:58:59.817Z,2.85
2022-09-26T02:01:31.373Z,5.05
2022-09-26T02:04:07.056Z,3.47
2022-09-26T02:06:37.278Z,4.50
2022-09-26T02:09:24.161Z,5.10
2022-09-26T02:11:55.085Z,3.90
2022-09-26T02:14:32.434Z,4.60
2022-09-26T02:17:08.333Z,6.55
2022-09-26T02:19:46.335Z,5.82
2022-09-26T02:22:13.186Z,7.60
2022-09-26T02:24:40.183Z,8.60
2022-09-26T02:27:07.538Z,6.40
2022-09-26T02:29:34.508Z,10.65
2022-09-26T02:32:05.999Z,8.55
2022-09-26T02:34:33.638Z,7.35
2022-09-26T02:37:01.238Z,8.68
2022-09-26T02:39:27.953Z,6.13
2022-09-26T02:42:02.509Z,6.15
2022-09-26T02:44:37.979Z,12.95
2022-09-26T02:47:15.828Z,7.85
2022-09-26T02:50:08.860Z,6.90
2022-09-26T02:53:06.504Z,7.53
2022-09-26T02:55:50.052Z,9.05
2022-09-26T02:58:35.056Z,9.75
2022-09-26T03:01:15.921Z,8.23
2022-09-26T03:03:45.016Z,6.82
2022-09-26T03:06:16.314Z,7.82
2022-09-26T03:08:46.683Z,9.60
2022-09-26T03:11:19.074Z,5.95
2022-09-26T03:13:46.308Z,5.63
2022-09-26T03:16:14.737Z,6.00
2022-09-26T03:18:51.225Z,9.15
2022-09-26T03:21:18.173Z,7.82
2022-09-26T03:23:45.485Z,5.60
2022-09-26T03:26:17.481Z,4.32
2022-09-26T03:28:44.489Z,5.03
2022-09-26T03:31:11.369Z,8.05
2022-09-26T03:33:38.182Z,9.23
2022-09-26T03:36:06.515Z,8.98
2022-09-26T03:38:33.180Z,5.75
2022-09-26T03:41:03.191Z,11.38
2022-09-26T03:43:31.457Z,6.28
2022-09-26T03:46:01.935Z,9.95
2022-09-26T03:48:28.662Z,7.30
2022-09-26T03:50:55.314Z,6.80
2022-09-26T03:53:21.939Z,6.80
2022-09-26T03:55:48.521Z,7.13
2022-09-26T03:58:15.420Z,8.10
2022-09-26T04:00:42.047Z,6.60
2022-09-26T04:03:10.259Z,5.78
2022-09-26T04:05:37.001Z,12.23
2022-09-26T04:08:03.992Z,7.80
2022-09-26T04:10:30.598Z,7.88
2022-09-26T04:12:57.292Z,6.63
2022-09-26T04:15:23.994Z,6.45
2022-09-26T04:17:50.661Z,8.48
2022-09-26T04:20:17.304Z,6.90
2022-09-26T04:22:43.946Z,6.50
2022-09-26T04:25:10.671Z,5.47
2022-09-26T04:27:38.141Z,6.68
2022-09-26T04:30:05.190Z,7.65
2022-09-26T04:32:31.846Z,4.35
2022-09-26T04:34:58.575Z,4.63
2022-09-26T04:37:25.404Z,4.60
2022-09-26T04:39:51.987Z,3.95
2022-09-26T04:42:18.816Z,3.92
2022-09-26T04:44:45.436Z,4.10
2022-09-26T04:47:12.026Z,4.65
2022-09-26T04:49:39.327Z,3.42
2022-09-26T04:52:06.336Z,3.58
2022-09-26T04:54:32.966Z,1.05
2022-09-26T04:57:00.517Z,4.97
2022-09-26T04:59:27.146Z,5.70
2022-09-26T05:01:54.574Z,4.00
2022-09-26T05:04:27.310Z,4.88
2022-09-26T05:06:57.627Z,5.22
2022-09-26T05:09:24.429Z,8.27
2022-09-26T05:11:51.148Z,3.40
2022-09-26T05:14:17.859Z,4.22
2022-09-26T05:16:45.071Z,4.72
2022-09-26T05:19:11.782Z,6.40
2022-09-26T05:21:38.563Z,6.43
2022-09-26T05:24:23.790Z,4.90
2022-09-26T05:26:52.354Z,6.45
2022-09-26T05:29:20.403Z,5.00
2022-09-26T05:31:47.645Z,6.40
2022-09-26T05:34:19.405Z,8.75
2022-09-26T05:36:46.369Z,9.80
2022-09-26T05:39:31.897Z,4.30
2022-09-26T05:41:59.339Z,4.28
2022-09-26T05:44:26.566Z,3.83
2022-09-26T05:46:53.378Z,4.13
2022-09-26T05:49:20.145Z,4.97
2022-09-26T05:51:46.756Z,5.75
2022-09-26T05:54:13.637Z,2.63
2022-09-26T05:56:40.554Z,6.45
2022-09-26T05:59:07.255Z,6.80
2022-09-26T06:01:34.451Z,5.55
2022-09-26T06:04:02.885Z,5.18
2022-09-26T06:06:30.311Z,6.50
2022-09-26T06:08:57.009Z,2.88
2022-09-26T06:11:27.953Z,4.03
2022-09-26T06:13:55.744Z,6.47
2022-09-26T06:16:22.871Z,5.00
2022-09-26T06:18:52.429Z,3.10
2022-09-26T06:21:20.624Z,3.88
2022-09-26T06:23:47.565Z,8.20
2022-09-26T06:26:32.394Z,4.22
2022-09-26T06:29:02.366Z,4.72
2022-09-26T06:31:29.964Z,2.80
2022-09-26T06:33:56.842Z,4.22
2022-09-26T06:36:24.290Z,4.10
2022-09-26T06:38:51.697Z,3.75
2022-09-26T06:41:18.412Z,6.93
2022-09-26T06:43:45.800Z,3.67
2022-09-26T06:46:14.827Z,6.60
2022-09-26T06:48:42.144Z,3.53
2022-09-26T06:51:09.333Z,6.53
2022-09-26T06:53:36.194Z,6.68
2022-09-26T06:56:03.064Z,5.53
2022-09-26T06:58:30.005Z,6.40
2022-09-26T07:00:59.197Z,4.75
2022-09-26T07:03:26.528Z,5.15
2022-09-26T07:05:56.930Z,5.07
2022-09-26T07:08:43.319Z,3.53
2022-09-26T07:11:32.952Z,5.88
2022-09-26T07:14:01.880Z,8.18
2022-09-26T07:16:29.229Z,5.30
2022-09-26T07:18:56.491Z,5.15
2022-09-26T07:21:23.422Z,4.72
2022-09-26T07:23:50.093Z,3.13
2022-09-26T07:26:16.688Z,5.43
2022-09-26T07:28:43.983Z,4.63
2022-09-26T07:31:10.960Z,5.80
2022-09-26T07:33:39.297Z,4.68
2022-09-26T07:36:06.577Z,3.38
2022-09-26T07:38:33.150Z,3.55
2022-09-26T07:41:01.136Z,6.20
2022-09-26T07:43:53.737Z,5.25
2022-09-26T07:46:33.458Z,7.63
2022-09-26T07:49:19.014Z,6.63
2022-09-26T07:51:46.067Z,6.85
2022-09-26T07:54:12.820Z,4.78
2022-09-26T07:56:40.338Z,6.28
2022-09-26T07:59:06.995Z,7.82
2022-09-26T08:01:37.604Z,3.08
2022-09-26T08:04:05.781Z,5.30
2022-09-26T08:06:35.102Z,5.82
2022-09-26T08:09:01.872Z,7.90
2022-09-26T08:11:28.904Z,5.80
2022-09-26T08:13:55.786Z,5.28
2022-09-26T08:16:23.346Z,4.60
2022-09-26T08:18:51.398Z,7.00
2022-09-26T08:21:18.947Z,11.18
2022-09-26T08:23:46.900Z,3.70
2022-09-26T08:26:15.488Z,6.88
2022-09-26T08:28:42.761Z,2.35
2022-09-26T08:31:09.500Z,8.57
2022-09-26T08:33:40.584Z,5.65
2022-09-26T08:36:11.799Z,7.53
2022-09-26T08:38:38.864Z,5.93
2022-09-26T08:41:22.942Z,14.95
2022-09-26T08:44:03.601Z,6.35
2022-09-26T08:47:04.589Z,5.18
2022-09-26T08:50:01.605Z,7.25
2022-09-26T08:52:30.042Z,5.25
2022-09-26T08:55:01.033Z,6.90
2022-09-26T08:57:41.417Z,7.97
2022-09-26T09:00:21.043Z,6.78
2022-09-26T09:03:00.014Z,4.72
2022-09-26T09:05:30.133Z,8.57
2022-09-26T09:07:58.653Z,4.10
2022-09-26T09:10:41.311Z,4.78
2022-09-26T09:13:40.878Z,4.47
2022-09-26T09:16:10.339Z,4.93
2022-09-26T09:19:05.429Z,7.18
2022-09-26T09:24:19.884Z,5.57
2022-09-26T09:30:03.230Z,10.52
2022-09-26T09:32:42.634Z,3.92
2022-09-26T09:35:16.056Z,7.18
2022-09-26T09:37:52.177Z,8.37
2022-09-26T09:40:34.315Z,5.55
2022-09-26T09:43:12.830Z,7.35
2022-09-26T09:45:50.596Z,8.68
2022-09-26T09:48:17.727Z,7.85
2022-09-26T09:51:03.523Z,4.45
2022-09-26T09:54:08.745Z,4.68
2022-09-26T09:57:08.075Z,3.55
2022-09-26T10:00:08.502Z,3.17
2022-09-26T10:03:04.810Z,4.55
2022-09-26T10:05:50.400Z,9.32
2022-09-26T10:08:20.197Z,7.28
2022-09-26T10:11:12.817Z,5.28
2022-09-26T10:13:42.839Z,7.75
2022-09-26T10:16:16.246Z,4.70
2022-09-26T10:19:08.037Z,4.87
2022-09-26T10:21:41.602Z,4.25
2022-09-26T10:24:24.012Z,7.20
2022-09-26T10:26:50.862Z,8.52
2022-09-26T10:29:35.140Z,5.32
2022-09-26T10:32:02.954Z,4.68
2022-09-26T10:34:32.137Z,4.60
2022-09-26T10:37:22.921Z,4.28
2022-09-26T10:40:17.222Z,7.78
2022-09-26T10:42:47.157Z,4.47
2022-09-26T10:45:20.302Z,5.80
2022-09-26T10:47:51.355Z,9.05
2022-09-26T10:50:24.957Z,6.30
2022-09-26T10:53:01.434Z,4.35
2022-09-26T10:55:36.523Z,4.47
2022-09-26T10:58:12.970Z,6.85
2022-09-26T11:00:44.349Z,3.90
2022-09-26T11:03:16.759Z,4.63
2022-09-26T11:05:59.013Z,6.28
2022-09-26T11:08:34.291Z,5.28
2022-09-26T11:11:13.811Z,5.97
2022-09-26T11:13:49.984Z,5.55
2022-09-26T11:16:20.190Z,4.20
2022-09-26T11:19:22.001Z,2.92
2022-09-26T11:22:08.705Z,4.47
2022-09-26T11:25:04.450Z,3.20
2022-09-26T11:27:38.586Z,4.28
2022-09-26T11:30:20.832Z,1.98
2022-09-26T11:32:56.305Z,5.47
2022-09-26T11:35:29.590Z,3.70
2022-09-26T11:38:11.251Z,7.25
2022-09-26T11:40:55.200Z,4.63
2022-09-26T11:43:46.638Z,3.35
2022-09-26T11:46:57.116Z,4.50
2022-09-26T11:49:52.187Z,6.15
2022-09-26T11:55:08.103Z,5.68
2022-09-26T11:57:45.382Z,6.15
2022-09-26T12:00:26.491Z,3.50
2022-09-26T12:03:08.578Z,3.47
2022-09-26T12:05:42.265Z,4.80
2022-09-26T12:08:21.692Z,3.05
2022-09-26T12:11:00.290Z,1.75
2022-09-26T12:13:38.342Z,3.33
2022-09-26T12:16:23.757Z,2.72
2022-09-26T12:19:14.146Z,2.10
2022-09-26T12:22:13.897Z,3.85
2022-09-26T12:25:05.921Z,5.35
2022-09-26T12:27:45.432Z,3.35
2022-09-26T12:30:21.919Z,2.38
2022-09-26T12:33:11.190Z,2.63
2022-09-26T12:35:55.634Z,2.40
2022-09-26T12:38:44.442Z,3.50
2022-09-26T12:41:25.058Z,3.08
2022-09-26T12:44:04.562Z,2.83
2022-09-26T12:47:02.934Z,1.58
2022-09-26T12:49:45.000Z,2.03
2022-09-26T12:52:37.765Z,2.70
2022-09-26T12:55:20.607Z,2.60
2022-09-26T12:58:12.821Z,1.73
2022-09-26T13:00:59.917Z,1.50
2022-09-26T13:03:50.826Z,1.50
2022-09-26T13:06:36.806Z,2.42
2022-09-26T13:09:21.551Z,2.38
2022-09-26T13:12:03.918Z,1.00
2022-09-26T13:15:00.742Z,1.00
2022-09-26T13:17:41.766Z,2.25
2022-09-26T13:20:14.790Z,1.15
2022-09-26T13:22:46.896Z,2.03
2022-09-26T13:25:32.381Z,1.50
2022-09-26T13:28:07.061Z,1.55
2022-09-26T13:30:37.988Z,1.23
2022-09-26T13:33:39.623Z,1.10
2022-09-26T13:36:09.781Z,1.58
2022-09-26T13:38:45.858Z,1.10
2022-09-26T13:41:33.885Z,1.50
2022-09-26T13:44:08.802Z,1.50
2022-09-26T13:46:50.610Z,1.45
2022-09-26T13:49:45.714Z,1.30
2022-09-26T13:57:36.704Z,1.40
2022-09-26T14:00:17.605Z,2.08
2022-09-26T14:03:09.537Z,8.38
2022-09-26T14:05:43.095Z,1.95
2022-09-26T14:08:43.630Z,2.07
2022-09-26T14:11:19.239Z,2.83
2022-09-26T14:13:47.635Z,1.25
2022-09-26T14:16:34.998Z,1.60
2022-09-26T14:19:20.993Z,1.15
2022-09-26T14:22:05.703Z,3.63
2022-09-26T14:27:11.830Z,2.90
2022-09-26T14:29:38.407Z,1.55
2022-09-26T14:32:09.805Z,1.50
2022-09-26T14:34:55.956Z,2.08
2022-09-26T14:37:25.606Z,1.48
2022-09-26T14:40:10.666Z,1.75
2022-09-26T14:42:40.299Z,3.10
2022-09-26T14:45:18.656Z,2.10
2022-09-26T14:48:14.873Z,1.58
2022-09-26T14:50:50.504Z,2.58
2022-09-26T14:53:40.190Z,2.92
2022-09-26T14:56:12.217Z,2.63
2022-09-26T14:58:42.068Z,4.05
2022-09-26T15:01:18.814Z,6.15
2022-09-26T15:04:19.988Z,1.42
2022-09-26T15:07:00.279Z,1.77
2022-09-26T15:09:41.688Z,3.38
2022-09-26T15:12:22.811Z,2.10
2022-09-26T15:15:03.967Z,3.08
2022-09-26T15:17:36.446Z,3.53
2022-09-26T15:20:07.658Z,4.20
2022-09-26T15:22:35.388Z,2.33
2022-09-26T15:25:30.413Z,3.97
2022-09-26T15:30:37.330Z,6.22
2022-09-26T15:33:04.737Z,2.28
2022-09-26T15:35:32.775Z,3.50
2022-09-26T15:38:01.070Z,4.38
2022-09-26T15:40:30.608Z,5.45
2022-09-26T15:43:09.832Z,2.80
2022-09-26T15:45:46.197Z,2.45
2022-09-26T15:48:25.153Z,3.05
2022-09-26T15:50:56.444Z,3.75
2022-09-26T15:53:31.924Z,3.63
2022-09-26T15:56:10.779Z,1.67
2022-09-26T15:58:48.127Z,2.60
2022-09-26T16:01:22.817Z,4.13
2022-09-26T16:04:02.475Z,3.35
2022-09-26T16:06:36.934Z,3.78
2022-09-26T16:09:21.595Z,2.78
2022-09-26T16:14:32.656Z,3.70
2022-09-26T16:17:25.032Z,5.90
2022-09-26T16:20:02.752Z,2.38
2022-09-26T16:22:47.019Z,3.38
2022-09-26T16:25:27.797Z,4.35
2022-09-26T16:27:58.135Z,5.65
2022-09-26T16:30:27.588Z,4.25
2022-09-26T16:33:17.160Z,6.70
2022-09-26T16:35:46.588Z,6.65
2022-09-26T16:38:19.255Z,4.38
2022-09-26T16:40:54.588Z,7.32
2022-09-26T16:43:27.449Z,7.45
2022-09-26T16:46:13.571Z,7.38
2022-09-26T16:48:49.478Z,6.97
2022-09-26T16:51:21.226Z,5.63
2022-09-26T16:53:53.488Z,8.43
2022-09-26T16:56:23.474Z,8.05
2022-09-26T16:59:02.576Z,8.18
2022-09-26T17:01:48.560Z,8.10
2022-09-26T17:04:20.234Z,10.02
2022-09-26T17:06:47.442Z,5.90
2022-09-26T17:09:16.012Z,7.53
2022-09-26T17:11:47.382Z,8.05
2022-09-26T17:14:18.039Z,11.10
2022-09-26T17:16:47.754Z,9.82
2022-09-26T17:19:17.571Z,9.13
2022-09-26T17:21:46.444Z,13.27
2022-09-26T17:24:24.261Z,14.30
2022-09-26T17:26:56.823Z,16.80
2022-09-26T17:29:31.727Z,8.95
2022-09-26T17:31:59.791Z,9.73
2022-09-26T17:34:28.286Z,8.70
2022-09-26T17:36:57.889Z,16.67
2022-09-26T17:39:29.239Z,13.10
2022-09-26T17:41:59.304Z,11.18
2022-09-26T17:44:26.189Z,10.73
2022-09-26T17:46:56.068Z,10.32
2022-09-26T17:49:27.472Z,10.88
2022-09-26T17:51:56.869Z,11.55
2022-09-26T17:54:30.193Z,9.35
2022-09-26T17:56:57.258Z,12.40
2022-09-26T17:59:25.688Z,9.38
2022-09-26T18:01:56.643Z,10.07
2022-09-26T18:04:25.765Z,10.80
2022-09-26T18:06:53.742Z,10.00
2022-09-26T18:09:21.426Z,12.38
2022-09-26T18:12:00.758Z,11.50
2022-09-26T18:14:31.137Z,10.18
2022-09-26T18:16:58.668Z,7.57
2022-09-26T18:19:25.539Z,8.75
2022-09-26T18:21:55.761Z,8.02
2022-09-26T18:24:27.222Z,10.05
2022-09-26T18:26:57.114Z,9.82
2022-09-26T18:29:37.267Z,7.43
2022-09-26T18:32:06.456Z,8.48
2022-09-26T18:34:33.299Z,6.80
2022-09-26T18:37:00.558Z,5.68
2022-09-26T18:39:28.901Z,8.57
2022-09-26T18:42:09.159Z,13.40
2022-09-26T18:44:36.669Z,10.45
2022-09-26T18:47:07.841Z,8.10
2022-09-26T18:49:37.183Z,5.28
2022-09-26T18:52:03.971Z,8.48
2022-09-26T18:54:33.618Z,8.80
2022-09-26T18:57:18.942Z,12.07
2022-09-26T18:59:45.726Z,12.07
2022-09-26T19:02:26.271Z,8.25
2022-09-26T19:04:54.154Z,10.80
2022-09-26T19:07:21.570Z,8.50
2022-09-26T19:09:49.626Z,7.68
2022-09-26T19:12:16.990Z,7.53
2022-09-26T19:14:44.527Z,12.23
2022-09-26T19:17:12.151Z,8.70
2022-09-26T19:19:39.520Z,7.95
2022-09-26T19:22:16.347Z,8.65
2022-09-26T19:24:49.864Z,9.27
2022-09-26T19:27:19.429Z,8.80
2022-09-26T19:29:52.277Z,14.63
2022-09-26T19:32:27.101Z,9.70
2022-09-26T19:34:57.116Z,9.98
2022-09-26T19:37:23.896Z,12.23
2022-09-26T19:39:50.642Z,6.25
2022-09-26T19:42:17.254Z,8.63
2022-09-26T19:44:43.893Z,9.75
2022-09-26T19:47:19.783Z,7.43
2022-09-26T19:49:48.041Z,7.38
2022-09-26T19:52:17.016Z,6.78
2022-09-26T19:54:45.193Z,5.03
2022-09-26T19:57:16.681Z,2.72
2022-09-26T19:59:43.710Z,4.20
2022-09-26T20:02:16.224Z,6.93
2022-09-26T20:04:43.921Z,5.13
2022-09-26T20:07:16.210Z,5.78
2022-09-26T20:20:25.261Z,3.92
2022-09-26T20:22:53.635Z,6.88
2022-09-26T20:25:27.138Z,4.35
2022-09-26T20:27:54.529Z,3.17
2022-09-26T20:30:40.296Z,4.15
2022-09-26T20:33:08.847Z,4.53
2022-09-26T20:35:40.195Z,5.03
2022-09-26T20:38:13.840Z,3.72
2022-09-26T20:40:40.679Z,4.10
2022-09-26T20:43:14.410Z,3.00
2022-09-26T20:45:43.964Z,5.85
2022-09-26T20:48:19.379Z,6.05
2022-09-26T20:50:48.198Z,4.32
2022-09-26T20:53:19.296Z,6.15
2022-09-26T20:55:47.045Z,5.45
2022-09-26T20:58:13.896Z,6.28
2022-09-26T21:00:42.072Z,6.07
2022-09-26T21:03:12.178Z,5.05
2022-09-26T21:05:39.183Z,5.68
2022-09-26T21:08:40.623Z,3.92
2022-09-26T21:11:15.068Z,6.93
2022-09-26T21:13:42.397Z,2.88
2022-09-26T21:16:14.000Z,3.10
2022-09-26T21:18:42.751Z,3.25
2022-09-26T21:21:26.800Z,8.48
2022-09-26T21:23:53.995Z,3.58
2022-09-26T21:26:23.470Z,4.75
2022-09-26T21:28:51.460Z,4.45
2022-09-26T21:31:26.318Z,7.53
2022-09-26T21:33:54.051Z,6.07
2022-09-26T21:36:23.813Z,7.07
2022-09-26T21:38:52.353Z,9.55
2022-09-26T21:41:19.442Z,8.00
2022-09-26T21:43:55.090Z,5.97
2022-09-26T21:46:21.859Z,8.98
2022-09-26T21:48:48.847Z,4.20
2022-09-26T21:51:15.458Z,9.95
2022-09-26T21:54:06.144Z,9.45
2022-09-26T21:56:37.883Z,7.80
2022-09-26T21:59:06.600Z,4.85
2022-09-26T22:01:33.335Z,8.43
2022-09-26T22:04:00.536Z,4.38
2022-09-26T22:06:27.178Z,6.38
2022-09-26T22:08:54.238Z,4.82
2022-09-26T22:11:20.814Z,5.65
2022-09-26T22:13:47.445Z,5.22
2022-09-26T22:16:14.278Z,7.47
2022-09-26T22:18:41.183Z,4.68
2022-09-26T22:21:09.796Z,5.10
2022-09-26T22:23:37.277Z,7.85
2022-09-26T22:26:04.319Z,7.55
2022-09-26T22:28:30.921Z,7.80
2022-09-26T22:31:01.965Z,7.65
2022-09-26T22:33:28.654Z,3.42
2022-09-26T22:35:55.275Z,4.80
2022-09-26T22:38:21.994Z,5.43
2022-09-26T22:40:59.869Z,4.97
2022-09-26T22:43:27.247Z,12.23
2022-09-26T22:46:00.060Z,5.00
2022-09-26T22:48:30.648Z,4.78
2022-09-26T22:50:57.203Z,6.72
